Time;durP1;ratioP1;P1;durP2;ratioP2;P2;SDS_P1;SDS_P2;PMS_P1;PMS_P2;Temp;Humidity;BMP_temperature;BMP_pressure;BME280_temperature;BME280_humidity;BME280_pressure;Samples;Min_cycle;Max_cycle;Signal;HPM_P1;HPM_P2
2021/07/01 00:00:19;;;;;;;32.13;28.70;;;;;;;24.65;77.78;93459.91;5004275;28;20393;-80
2021/07/01 00:02:45;;;;;;;32.60;29.20;;;;;;;24.45;78.26;93446.75;5000324;28;20041;-79
2021/07/01 00:05:12;;;;;;;31.80;28.60;;;;;;;24.55;78.38;93464.91;5003035;28;20045;-78
2021/07/01 00:07:38;;;;;;;35.20;29.88;;;;;;;24.56;78.54;93463.75;4998903;28;20437;-80
2021/07/01 00:10:10;;;;;;;34.80;29.75;;;;;;;24.61;78.41;93457.19;5003536;28;20056;-80
2021/07/01 00:12:36;;;;;;;31.95;28.33;;;;;;;24.49;78.51;93458.34;5004199;28;20076;-80
2021/07/01 00:15:05;;;;;;;33.88;28.85;;;;;;;24.42;78.67;93466.44;5001570;28;20121;-80
2021/07/01 00:17:30;;;;;;;33.55;28.83;;;;;;;24.43;78.74;93465.28;5000469;28;20041;-80
2021/07/01 00:19:55;;;;;;;33.65;30.08;;;;;;;24.45;78.96;93460.25;5002833;28;20096;-80
2021/07/01 00:22:21;;;;;;;33.85;30.20;;;;;;;24.41;78.84;93466.81;4998157;28;20118;-79
2021/07/01 00:24:46;;;;;;;33.53;28.98;;;;;;;24.31;79.24;93468.34;4998675;28;20025;-80
2021/07/01 00:27:12;;;;;;;33.83;30.15;;;;;;;24.28;79.79;93461.00;5005492;28;20041;-82
2021/07/01 00:29:37;;;;;;;36.53;29.77;;;;;;;24.23;79.99;93466.78;5001173;28;20085;-80
2021/07/01 00:32:03;;;;;;;33.50;28.98;;;;;;;24.36;79.73;93469.88;5003354;28;20069;-80
2021/07/01 00:34:28;;;;;;;30.77;27.52;;;;;;;24.23;80.17;93472.19;5001785;28;20050;-81
2021/07/01 00:36:54;;;;;;;34.83;30.10;;;;;;;24.18;80.50;93475.25;5004789;28;20128;-81
2021/07/01 00:39:19;;;;;;;32.00;28.70;;;;;;;24.30;79.92;93477.59;4998896;28;20022;-81
2021/07/01 00:41:44;;;;;;;34.00;29.58;;;;;;;24.15;80.46;93470.56;4998871;28;20104;-80
2021/07/01 00:44:10;;;;;;;32.85;28.98;;;;;;;24.20;80.10;93472.94;5000561;28;20037;-81
2021/07/01 00:46:35;;;;;;;30.92;27.67;;;;;;;24.11;80.18;93465.16;5002292;28;20037;-81
2021/07/01 00:49:01;;;;;;;31.38;27.23;;;;;;;24.09;80.50;93456.66;4999132;28;20055;-80
2021/07/01 00:51:27;;;;;;;33.92;28.42;;;;;;;24.02;80.82;93456.66;5001932;28;20474;-81
2021/07/01 00:53:55;;;;;;;31.90;27.10;;;;;;;24.01;80.73;93448.94;5004089;28;20061;-81
2021/07/01 00:56:21;;;;;;;31.48;27.75;;;;;;;24.16;80.49;93451.34;5014794;28;20053;-80
2021/07/01 00:58:48;;;;;;;28.92;25.98;;;;;;;24.15;80.08;93455.16;5002094;28;20081;-81
2021/07/01 01:01:14;;;;;;;33.33;27.58;;;;;;;24.12;80.50;93460.53;4996198;28;20120;-80
2021/07/01 01:03:39;;;;;;;31.30;26.58;;;;;;;24.07;80.40;93455.50;5003360;28;20497;-79
2021/07/01 01:06:06;;;;;;;29.92;25.60;;;;;;;24.16;80.05;93464.03;5004434;28;20026;-80
2021/07/01 01:08:31;;;;;;;29.45;24.80;;;;;;;24.17;79.72;93471.78;4999956;28;20125;-80
2021/07/01 01:10:57;;;;;;;29.38;26.17;;;;;;;24.04;80.10;93453.59;5000423;28;20042;-82
2021/07/01 01:13:26;;;;;;;29.65;26.52;;;;;;;23.95;80.96;93466.66;5001542;28;20034;-80
2021/07/01 01:16:04;;;;;;;27.52;24.90;;;;;;;24.00;80.43;93474.38;4999210;28;20026;-81
2021/07/01 01:18:30;;;;;;;28.73;25.75;;;;;;;23.93;80.68;93479.75;5003991;28;20021;-83
2021/07/01 01:20:58;;;;;;;31.20;26.02;;;;;;;23.95;80.68;93472.03;4999813;28;20430;-82
2021/07/01 01:23:24;;;;;;;28.80;25.77;;;;;;;23.86;81.03;93474.31;5000474;28;20123;-81
2021/07/01 01:25:53;;;;;;;30.92;25.95;;;;;;;23.73;81.03;93461.19;5002402;28;20065;-82
2021/07/01 01:28:19;;;;;;;33.95;24.73;;;;;;;23.87;81.07;93465.84;4999626;28;20029;-82
2021/07/01 01:30:45;;;;;;;26.90;24.10;;;;;;;23.94;80.93;93475.91;4997413;28;20029;-81
2021/07/01 01:33:11;;;;;;;28.00;23.73;;;;;;;23.96;81.00;93468.97;5001757;28;20628;-81
2021/07/01 01:35:37;;;;;;;28.15;25.20;;;;;;;23.79;81.27;93472.38;5000490;28;20832;-82
2021/07/01 01:38:06;;;;;;;27.42;24.25;;;;;;;23.88;80.95;93472.03;5001191;28;20468;-80
2021/07/01 01:40:31;;;;;;;26.67;22.73;;;;;;;23.90;80.55;93469.72;5004095;28;20153;-82
2021/07/01 01:42:57;;;;;;;27.42;23.27;;;;;;;23.83;80.78;93475.88;5003489;28;20482;-83
2021/07/01 01:45:22;;;;;;;24.73;22.13;;;;;;;23.82;80.54;93470.84;5008591;28;20022;-81
2021/07/01 01:47:52;;;;;;;36.35;25.23;;;;;;;23.74;81.21;93473.53;5004042;28;20124;-82
2021/07/01 01:50:22;;;;;;;26.42;23.60;;;;;;;23.74;81.21;93481.63;5005315;28;20034;-80
2021/07/01 01:52:48;;;;;;;24.83;22.15;;;;;;;23.75;80.97;93475.03;5003822;28;20048;-81
2021/07/01 01:55:15;;;;;;;30.77;23.33;;;;;;;23.70;80.61;93463.88;5002859;28;20046;-81
2021/07/01 01:57:45;;;;;;;26.95;24.10;;;;;;;23.74;80.66;93475.44;5018326;28;20053;-80
2021/07/01 02:00:16;;;;;;;25.42;22.77;;;;;;;23.59;81.12;93481.91;5007728;28;20013;-80
2021/07/01 02:02:42;;;;;;;27.40;22.70;;;;;;;23.54;81.43;93482.28;5003359;28;20038;-81
2021/07/01 02:05:09;;;;;;;28.50;24.02;;;;;;;23.35;81.88;93487.91;4987615;28;20038;-81
2021/07/01 02:07:35;;;;;;;25.73;22.65;;;;;;;23.38;81.45;93476.38;4989217;28;20054;-80
2021/07/01 02:10:06;;;;;;;25.88;22.85;;;;;;;23.44;80.84;93480.25;5003425;28;20041;-81
2021/07/01 02:12:32;;;;;;;27.38;22.40;;;;;;;23.31;80.97;93477.84;5006726;28;20607;-81
2021/07/01 02:14:58;;;;;;;26.80;20.55;;;;;;;23.21;81.47;93477.81;5003910;28;20129;-80
2021/07/01 02:17:24;;;;;;;27.52;22.77;;;;;;;23.23;81.72;93486.28;5003224;28;20061;-80
2021/07/01 02:19:49;;;;;;;26.42;23.10;;;;;;;23.04;82.77;93490.00;5003857;28;20038;-80
2021/07/01 02:22:16;;;;;;;29.23;21.83;;;;;;;23.01;82.82;93490.00;4999118;28;20064;-80
2021/07/01 02:24:42;;;;;;;27.48;23.67;;;;;;;23.03;82.74;93482.28;5000124;28;20018;-81
2021/07/01 02:27:08;;;;;;;25.25;22.33;;;;;;;23.00;83.15;93483.03;4999244;28;20029;-81
2021/07/01 02:29:34;;;;;;;29.52;22.85;;;;;;;22.89;83.06;93494.50;5004983;28;20418;-81
2021/07/01 02:32:00;;;;;;;27.67;23.85;;;;;;;22.79;83.49;93502.50;5004554;28;20046;-81
2021/07/01 02:34:26;;;;;;;27.45;21.67;;;;;;;22.85;82.93;93485.63;4994374;28;20474;-80
2021/07/01 02:36:51;;;;;;;24.95;21.17;;;;;;;22.89;82.75;93507.97;4986389;28;20784;-81
2021/07/01 02:39:17;;;;;;;27.35;24.30;;;;;;;22.85;83.47;93504.50;5002622;28;20037;-80
2021/07/01 02:41:42;;;;;;;30.63;22.70;;;;;;;22.89;83.38;93494.50;5003461;28;20475;-82
2021/07/01 02:44:08;;;;;;;31.88;25.48;;;;;;;22.89;83.41;93505.28;5002109;28;20568;-81
2021/07/01 02:46:33;;;;;;;27.65;24.20;;;;;;;22.77;83.62;93512.88;5003323;28;20037;-80
2021/07/01 02:48:59;;;;;;;27.13;23.95;;;;;;;22.77;83.66;93500.16;5003714;28;20049;-81
2021/07/01 02:51:24;;;;;;;23.73;21.00;;;;;;;22.92;82.52;93514.53;5005784;28;20446;-81
2021/07/01 02:53:50;;;;;;;24.85;20.80;;;;;;;22.78;82.35;93523.28;5000206;28;20484;-81
2021/07/01 02:56:16;;;;;;;32.13;22.55;;;;;;;22.84;82.23;93515.63;5004254;28;20048;-80
2021/07/01 02:58:41;;;;;;;27.50;21.85;;;;;;;22.85;82.61;93525.28;5003041;28;20050;-81
2021/07/01 03:01:07;;;;;;;32.38;22.63;;;;;;;22.89;82.58;93526.84;4999239;28;20037;-81
2021/07/01 03:03:32;;;;;;;31.40;23.77;;;;;;;22.71;83.47;93520.53;5006749;28;20043;-80
2021/07/01 03:05:58;;;;;;;33.95;25.60;;;;;;;22.87;83.73;93539.91;5017974;28;20132;-81
2021/07/01 03:08:23;;;;;;;31.27;25.17;;;;;;;23.03;83.45;93539.66;5001995;28;20096;-81
2021/07/01 03:10:49;;;;;;;28.13;23.67;;;;;;;23.02;83.19;93548.13;5000969;28;20034;-81
2021/07/01 03:13:14;;;;;;;31.13;24.55;;;;;;;23.15;82.79;93550.16;5002012;28;20041;-81
2021/07/01 03:15:41;;;;;;;27.00;24.05;;;;;;;23.22;82.57;93538.66;5003354;28;20108;-80
2021/07/01 03:18:06;;;;;;;27.77;24.25;;;;;;;23.15;82.84;93550.16;5003256;28;20033;-80
2021/07/01 03:20:31;;;;;;;28.38;24.48;;;;;;;23.08;83.11;93554.72;4998974;28;20053;-81
2021/07/01 03:22:57;;;;;;;29.92;22.65;;;;;;;23.36;82.24;93554.19;5003577;28;20056;-81
2021/07/01 03:25:22;;;;;;;28.48;22.88;;;;;;;23.45;81.60;93555.44;5014100;28;20046;-81
2021/07/01 03:27:48;;;;;;;30.25;23.42;;;;;;;23.51;81.25;93556.59;5005183;28;20029;-81
2021/07/01 03:30:14;;;;;;;24.60;21.80;;;;;;;23.52;81.53;93550.06;4998181;28;20034;-81
2021/07/01 03:32:39;;;;;;;25.98;21.90;;;;;;;23.80;80.90;93562.94;5006660;28;20041;-82
2021/07/01 03:35:05;;;;;;;24.42;21.23;;;;;;;24.04;79.38;93551.50;4999984;28;20046;-82
2021/07/01 03:37:30;;;;;;;33.33;23.05;;;;;;;24.25;79.06;93571.69;5003397;28;20486;-81
2021/07/01 03:39:56;;;;;;;27.00;21.88;;;;;;;24.46;78.12;93561.75;5001936;28;20462;-82
2021/07/01 03:42:22;;;;;;;22.27;20.00;;;;;;;24.76;77.12;93560.69;5001267;28;20637;-82
2021/07/01 03:44:48;;;;;;;21.38;18.92;;;;;;;25.08;76.23;93564.22;4995185;28;20029;-81
2021/07/01 03:47:13;;;;;;;21.45;19.02;;;;;;;25.48;74.47;93567.69;4998476;28;20041;-81
2021/07/01 03:49:39;;;;;;;22.42;19.27;;;;;;;25.75;73.02;93558.81;4995474;28;20053;-81
2021/07/01 03:52:06;;;;;;;23.48;18.75;;;;;;;26.06;71.62;93557.19;5000513;28;20124;-82
2021/07/01 03:54:32;;;;;;;22.70;17.27;;;;;;;26.38;70.54;93562.53;5004407;28;20045;-81
2021/07/01 03:56:57;;;;;;;18.42;16.63;;;;;;;26.73;69.25;93548.78;4996592;28;20045;-81
2021/07/01 03:59:24;;;;;;;24.30;17.05;;;;;;;26.86;68.23;93542.91;4998003;28;20048;-82
2021/07/01 04:01:49;;;;;;;22.13;16.90;;;;;;;27.20;67.24;93546.56;4998900;28;20053;-82
2021/07/01 04:04:15;;;;;;;18.83;16.92;;;;;;;27.41;66.53;93546.41;5000562;28;20041;-82
2021/07/01 04:06:44;;;;;;;18.98;16.98;;;;;;;27.81;63.97;93542.19;4997867;28;20053;-82
2021/07/01 04:09:12;;;;;;;19.27;16.45;;;;;;;28.13;63.26;93532.97;5001155;28;20022;-81
2021/07/01 04:11:37;;;;;;;18.52;15.43;;;;;;;28.47;61.45;93538.38;4998082;28;20049;-82
2021/07/01 04:14:03;;;;;;;19.58;15.40;;;;;;;28.84;61.10;93525.47;4998792;28;20034;-82
2021/07/01 04:16:30;;;;;;;14.43;13.02;;;;;;;29.30;58.72;93532.16;4998482;28;20037;-81
2021/07/01 04:18:55;;;;;;;17.42;14.18;;;;;;;29.67;56.93;93529.22;5000345;28;20037;-82
2021/07/01 04:21:26;;;;;;;22.98;15.32;;;;;;;30.19;55.47;93522.47;5002011;28;20034;-81
2021/07/01 04:23:51;;;;;;;18.25;14.43;;;;;;;30.62;53.69;93527.84;5000062;28;20042;-82
2021/07/01 04:26:17;;;;;;;17.95;13.80;;;;;;;31.14;52.35;93523.19;5002386;28;20041;-82
2021/07/01 04:28:43;;;;;;;19.35;12.80;;;;;;;31.52;50.51;93509.78;4997563;28;20038;-81
2021/07/01 04:31:08;;;;;;;15.52;12.85;;;;;;;31.89;49.40;93518.66;4999955;28;20030;-81
2021/07/01 04:33:34;;;;;;;20.17;14.23;;;;;;;32.01;49.19;93515.22;5000815;28;20045;-81
2021/07/01 04:35:59;;;;;;;15.90;12.65;;;;;;;32.03;48.37;93513.59;4998649;28;20594;-81
2021/07/01 04:38:26;;;;;;;19.75;12.07;;;;;;;32.30;47.87;93520.72;4998247;28;20056;-81
2021/07/01 04:40:51;;;;;;;15.75;12.00;;;;;;;32.77;47.50;93521.72;5010457;28;20057;-82
2021/07/01 04:43:16;;;;;;;18.88;12.10;;;;;;;33.17;46.91;93519.34;4998308;28;20490;-81
2021/07/01 04:45:42;;;;;;;15.57;12.50;;;;;;;33.51;46.13;93518.66;4997994;28;20021;-82
2021/07/01 04:48:07;;;;;;;17.52;11.32;;;;;;;34.07;44.57;93509.72;5004644;28;20032;-82
2021/07/01 04:50:33;;;;;;;18.83;11.25;;;;;;;34.56;43.63;93521.69;4999682;28;20124;-81
2021/07/01 04:52:59;;;;;;;16.77;11.73;;;;;;;34.76;42.67;93530.38;5002708;28;20038;-81
2021/07/01 04:55:24;;;;;;;18.63;11.52;;;;;;;35.01;41.47;93521.22;5001177;28;20077;-81
2021/07/01 04:57:50;;;;;;;18.75;12.60;;;;;;;35.39;41.22;93531.91;4997764;28;20058;-82
2021/07/01 05:00:15;;;;;;;13.25;11.45;;;;;;;35.70;40.31;93536.59;5002166;28;20033;-81
2021/07/01 05:02:41;;;;;;;16.23;11.85;;;;;;;35.82;39.85;93530.22;5000899;28;20128;-81
2021/07/01 05:05:07;;;;;;;17.42;12.25;;;;;;;36.14;39.14;93543.41;4997962;28;20454;-81
2021/07/01 05:07:33;;;;;;;15.50;10.80;;;;;;;36.35;38.51;93552.75;5000844;28;20041;-81
2021/07/01 05:09:58;;;;;;;17.52;11.93;;;;;;;36.57;38.46;93531.31;5002225;28;20047;-81
2021/07/01 05:12:23;;;;;;;18.90;12.75;;;;;;;36.65;37.94;93548.31;4999886;28;20045;-82
2021/07/01 05:14:49;;;;;;;20.95;13.25;;;;;;;36.41;39.00;93546.16;5003961;28;20029;-82
2021/07/01 05:17:15;;;;;;;24.35;13.00;;;;;;;36.32;39.89;93546.16;5004774;28;20049;-82
2021/07/01 05:19:40;;;;;;;19.10;12.68;;;;;;;36.22;40.12;93538.34;5005555;28;20492;-82
2021/07/01 05:22:06;;;;;;;23.33;13.15;;;;;;;36.58;38.94;93543.09;5004826;28;20860;-81
2021/07/01 05:24:31;;;;;;;16.15;13.38;;;;;;;36.57;38.46;93541.53;5004716;28;20552;-82
2021/07/01 05:26:57;;;;;;;20.98;13.32;;;;;;;36.77;38.62;93537.13;5004151;28;20124;-82
2021/07/01 05:29:22;;;;;;;18.30;12.52;;;;;;;36.36;38.65;93543.28;5000219;28;20034;-82
2021/07/01 05:31:47;;;;;;;18.10;12.30;;;;;;;36.20;39.38;93547.09;5006156;28;20085;-82
2021/07/01 05:34:13;;;;;;;23.17;14.00;;;;;;;36.84;37.42;93533.28;5005151;28;20053;-81
2021/07/01 05:36:38;;;;;;;18.98;13.10;;;;;;;37.21;36.90;93534.72;5005605;28;20479;-81
2021/07/01 05:39:05;;;;;;;22.30;13.45;;;;;;;37.80;36.05;93537.03;5006725;28;20070;-80
2021/07/01 05:41:31;;;;;;;18.23;12.80;;;;;;;38.49;35.23;93533.97;5000672;28;20061;-81
2021/07/01 05:43:58;;;;;;;21.23;12.18;;;;;;;38.90;34.09;93530.22;5001400;28;20144;-81
2021/07/01 05:46:24;;;;;;;17.83;11.80;;;;;;;38.97;33.71;93524.31;5000127;28;20038;-81
2021/07/01 05:48:49;;;;;;;20.45;12.07;;;;;;;39.76;32.48;93526.31;4982069;28;20026;-81
2021/07/01 05:51:16;;;;;;;19.73;12.15;;;;;;;40.06;31.83;93521.41;5009642;28;20029;-81
2021/07/01 05:56:22;;;;;;;20.02;11.30;;;;;;;41.14;30.57;93518.06;5001862;28;20579;-82
2021/07/01 05:58:47;;;;;;;22.13;12.48;;;;;;;41.23;29.84;93528.19;5003696;28;20323;-82
2021/07/01 06:01:13;;;;;;;19.75;12.93;;;;;;;40.60;30.33;93531.63;5004811;28;20038;-83
2021/07/01 06:03:38;;;;;;;13.68;12.23;;;;;;;40.25;30.72;93528.22;5005926;28;20147;-82
2021/07/01 06:06:12;;;;;;;21.73;11.82;;;;;;;40.23;31.16;93522.38;5006167;28;20604;-82
2021/07/01 06:08:39;;;;;;;16.88;12.55;;;;;;;40.50;30.03;93527.50;4997440;28;20045;-82
2021/07/01 06:11:06;;;;;;;15.57;12.68;;;;;;;40.73;29.82;93538.81;5004279;28;20038;-82
2021/07/01 06:13:37;;;;;;;20.73;11.68;;;;;;;40.68;29.95;93538.28;5006430;28;20091;-81
2021/07/01 06:16:03;;;;;;;15.80;12.45;;;;;;;40.38;29.91;93539.69;5003339;28;20549;-82
2021/07/01 06:18:28;;;;;;;15.73;11.98;;;;;;;40.24;29.52;93549.59;5004129;28;20084;-82
2021/07/01 06:20:54;;;;;;;16.63;11.10;;;;;;;40.75;29.52;93550.94;5000340;28;20462;-81
2021/07/01 06:23:19;;;;;;;16.95;11.52;;;;;;;41.64;28.63;93548.19;5000784;28;20095;-81
2021/07/01 06:25:53;;;;;;;17.83;11.63;;;;;;;41.47;28.43;93545.31;5001411;28;20045;-82
2021/07/01 06:28:19;;;;;;;19.73;11.52;;;;;;;41.40;29.18;93551.25;5004593;28;20040;-81
2021/07/01 06:30:46;;;;;;;19.63;12.50;;;;;;;41.74;28.57;93555.06;4999086;28;20030;-81
2021/07/01 06:33:12;;;;;;;18.88;10.45;;;;;;;41.46;26.72;93550.09;5007079;28;20021;-81
2021/07/01 06:35:38;;;;;;;17.15;10.75;;;;;;;42.08;27.20;93547.72;5002179;28;20053;-81
2021/07/01 06:38:11;;;;;;;17.60;10.52;;;;;;;42.53;27.23;93549.41;5001653;28;20037;-81
2021/07/01 06:40:38;;;;;;;19.67;12.75;;;;;;;42.80;27.23;93545.22;4997619;28;20086;-80
2021/07/01 06:43:04;;;;;;;20.63;10.38;;;;;;;42.78;26.93;93531.06;4999878;28;20134;-82
2021/07/01 06:45:31;;;;;;;20.48;11.98;;;;;;;43.36;26.17;93546.03;5001517;28;20037;-80
2021/07/01 06:47:57;;;;;;;29.80;11.35;;;;;;;43.91;25.55;93536.91;4999280;28;20091;-84
2021/07/01 06:50:25;;;;;;;28.33;11.68;;;;;;;44.37;24.48;93532.75;4996521;28;20160;-82
2021/07/01 06:52:55;;;;;;;17.08;10.98;;;;;;;44.56;24.03;93539.22;4997435;28;20079;-82
2021/07/01 06:55:21;;;;;;;18.20;11.07;;;;;;;44.67;23.83;93541.97;5004264;28;20111;-81
2021/07/01 06:57:47;;;;;;;20.52;11.43;;;;;;;44.57;23.16;93531.63;5001272;28;20049;-82
2021/07/01 07:00:15;;;;;;;21.30;10.55;;;;;;;44.73;23.28;93530.78;5006061;28;20486;-81
2021/07/01 07:02:41;;;;;;;19.23;11.13;;;;;;;44.67;24.24;93530.81;5000574;28;20533;-80
2021/07/01 07:05:12;;;;;;;15.38;11.07;;;;;;;44.85;23.40;93530.22;5003407;28;20042;-81
2021/07/01 07:07:46;;;;;;;21.60;11.60;;;;;;;45.08;23.28;93530.06;5004016;28;20099;-81
2021/07/01 07:10:14;;;;;;;14.55;9.25;;;;;;;45.48;22.94;93529.28;5001605;28;20050;-82
2021/07/01 07:12:41;;;;;;;20.85;12.05;;;;;;;45.32;23.25;93521.00;5002212;28;20365;-81
2021/07/01 07:15:09;;;;;;;20.42;12.88;;;;;;;44.63;24.20;93524.72;5004297;28;20061;-82
2021/07/01 07:17:37;;;;;;;18.48;11.30;;;;;;;45.41;23.95;93521.47;5003434;28;20514;-81
2021/07/01 07:20:03;;;;;;;23.20;13.30;;;;;;;45.07;24.12;93520.19;5001848;28;20045;-81
2021/07/01 07:22:33;;;;;;;20.40;13.02;;;;;;;44.61;24.52;93521.72;5002864;28;20073;-81
2021/07/01 07:25:05;;;;;;;15.88;12.93;;;;;;;44.74;25.09;93513.56;5002912;28;20494;-80
2021/07/01 07:27:32;;;;;;;20.10;12.30;;;;;;;45.28;23.68;93518.50;5005437;28;20029;-82
2021/07/01 07:29:59;;;;;;;17.23;12.30;;;;;;;45.40;23.83;93517.19;5003022;28;20045;-82
2021/07/01 07:32:27;;;;;;;23.58;13.63;;;;;;;44.91;23.59;93510.66;5002284;28;20180;-81
2021/07/01 07:34:53;;;;;;;23.60;12.50;;;;;;;44.47;24.77;93512.41;5001426;28;20042;-82
2021/07/01 07:37:19;;;;;;;21.85;13.35;;;;;;;44.36;25.25;93506.91;5002054;28;20414;-81
2021/07/01 07:39:46;;;;;;;22.55;13.23;;;;;;;43.85;24.98;93499.94;4999614;28;20030;-81
2021/07/01 07:42:12;;;;;;;18.05;13.32;;;;;;;44.05;24.73;93512.81;5002967;28;20030;-81
2021/07/01 07:44:42;;;;;;;19.88;14.43;;;;;;;43.13;25.77;93500.81;5004648;28;20394;-80
2021/07/01 07:47:13;;;;;;;16.95;13.95;;;;;;;43.17;25.65;93506.88;5000918;28;20042;-82
2021/07/01 07:49:39;;;;;;;21.85;14.20;;;;;;;43.41;25.49;93502.78;5002775;28;20213;-80
2021/07/01 07:52:09;;;;;;;23.17;15.50;;;;;;;43.96;24.09;93502.72;5003424;28;20033;-83
2021/07/01 07:54:58;;;;;;;26.88;12.90;;;;;;;43.57;24.66;93507.63;5006845;28;20057;-81
2021/07/01 07:57:28;;;;;;;19.90;11.82;;;;;;;43.56;24.37;93508.88;5003254;28;20507;-82
2021/07/01 07:59:56;;;;;;;27.65;12.50;;;;;;;43.80;24.54;93494.41;5004455;28;20057;-83
2021/07/01 08:02:40;;;;;;;27.90;11.77;;;;;;;44.40;23.69;93490.66;5001103;28;20088;-81
2021/07/01 08:05:06;;;;;;;23.10;12.32;;;;;;;44.62;24.07;93494.59;5003570;28;20549;-81
2021/07/01 08:07:32;;;;;;;17.92;12.55;;;;;;;44.41;23.23;93492.19;5001438;28;20422;-82
2021/07/01 08:10:00;;;;;;;23.95;12.27;;;;;;;43.94;24.67;93499.69;4999850;28;21018;-82
2021/07/01 08:12:28;;;;;;;21.73;12.88;;;;;;;43.78;24.55;93491.38;5019413;28;20049;-83
2021/07/01 08:14:54;;;;;;;19.65;10.63;;;;;;;44.25;24.08;93492.22;4997425;28;20553;-81
2021/07/01 08:17:19;;;;;;;21.05;11.02;;;;;;;44.40;23.94;93495.47;5002169;28;20045;-82
2021/07/01 08:19:45;;;;;;;22.40;10.52;;;;;;;45.16;23.55;93480.84;4999700;28;20133;-80
2021/07/01 08:22:11;;;;;;;23.85;11.48;;;;;;;45.31;21.62;93491.63;5003812;28;20042;-81
2021/07/01 08:24:36;;;;;;;26.38;11.60;;;;;;;45.52;22.78;93493.44;5000979;28;20071;-81
2021/07/01 08:27:02;;;;;;;20.23;10.38;;;;;;;45.56;21.07;93496.72;5015475;28;20045;-81
2021/07/01 08:29:28;;;;;;;20.60;10.27;;;;;;;45.45;20.96;93496.06;4997132;28;20037;-82
2021/07/01 08:31:57;;;;;;;18.60;10.52;;;;;;;45.13;21.26;93493.78;5000593;28;21142;-80
2021/07/01 08:34:23;;;;;;;19.95;9.07;;;;;;;45.00;21.40;93478.91;5001402;28;20550;-82
2021/07/01 08:36:49;;;;;;;23.50;10.02;;;;;;;44.88;20.69;93484.56;5004459;28;20025;-81
2021/07/01 08:39:15;;;;;;;24.83;9.73;;;;;;;44.56;22.47;93480.72;5004411;28;20052;-79
2021/07/01 08:41:44;;;;;;;18.88;9.10;;;;;;;45.35;20.61;93484.47;4999893;28;20387;-81
2021/07/01 08:44:22;;;;;;;18.13;9.50;;;;;;;44.91;20.49;93476.44;5000283;28;20497;-80
2021/07/01 08:46:52;;;;;;;21.38;8.95;;;;;;;44.51;21.35;93473.13;4992728;28;20070;-81
2021/07/01 08:49:37;;;;;;;21.85;10.90;;;;;;;44.07;22.01;93479.66;4976253;28;20044;-80
2021/07/01 08:52:05;;;;;;;22.30;9.07;;;;;;;44.45;20.95;93469.63;4994352;28;20042;-79
2021/07/01 08:54:35;;;;;;;19.25;8.80;;;;;;;44.89;21.11;93468.59;4981406;28;20046;-81
2021/07/01 08:57:04;;;;;;;16.40;9.15;;;;;;;44.96;21.08;93468.03;5001919;28;20037;-82
2021/07/01 08:59:39;;;;;;;18.25;8.85;;;;;;;45.09;20.27;93467.44;5001900;28;20046;-80
2021/07/01 09:02:09;;;;;;;25.92;10.18;;;;;;;45.06;20.75;93463.66;5019668;28;20112;-81
2021/07/01 09:05:02;;;;;;;20.08;8.88;;;;;;;45.58;19.37;93463.47;4995938;28;20451;-81
2021/07/01 09:07:28;;;;;;;;;;;;;;;45.48;19.89;93461.53;4997842;28;20042;-82
2021/07/01 09:10:04;;;;;;;25.42;10.05;;;;;;;45.87;19.73;93458.34;5000351;28;19971;-82
2021/07/01 09:12:32;;;;;;;21.65;9.50;;;;;;;46.14;19.51;93460.03;5003903;28;20044;-81
2021/07/01 09:15:03;;;;;;;20.70;8.18;;;;;;;45.15;19.41;93459.78;5003338;28;20033;-81
2021/07/01 09:17:31;;;;;;;22.38;9.50;;;;;;;43.97;21.02;93454.13;4999982;28;20612;-81
2021/07/01 09:19:58;;;;;;;27.85;8.75;;;;;;;43.57;20.48;93443.63;5000317;28;20153;-81
2021/07/01 09:22:26;;;;;;;18.15;9.32;;;;;;;42.73;21.69;93445.66;5001459;28;20052;-81
2021/07/01 09:24:53;;;;;;;25.85;9.65;;;;;;;42.67;22.13;93448.44;5003239;28;20044;-80
2021/07/01 09:27:20;;;;;;;32.90;8.60;;;;;;;42.56;21.76;93439.31;4999281;28;20025;-82
2021/07/01 09:29:47;;;;;;;24.42;10.13;;;;;;;41.27;24.15;93443.53;5014951;28;20073;-82
2021/07/01 09:32:14;;;;;;;21.50;8.63;;;;;;;40.86;22.68;93445.72;5000458;28;20041;-82
2021/07/01 09:34:42;;;;;;;20.75;8.88;;;;;;;40.12;24.51;93441.97;4999039;28;20042;-81
2021/07/01 09:37:08;;;;;;;33.28;9.35;;;;;;;40.16;24.61;93436.97;5000415;28;20034;-81
2021/07/01 09:39:34;;;;;;;21.98;8.95;;;;;;;39.87;25.37;93434.41;5004100;28;20370;-80
2021/07/01 09:42:02;;;;;;;19.67;8.77;;;;;;;39.75;25.98;93425.16;4997468;28;20069;-81
2021/07/01 09:44:29;;;;;;;25.08;8.90;;;;;;;39.68;25.16;93431.13;4999077;28;20064;-81
2021/07/01 09:47:05;;;;;;;27.00;9.38;;;;;;;39.80;24.77;93422.50;4998963;28;20081;-81
2021/07/01 09:49:42;;;;;;;20.42;9.55;;;;;;;40.02;24.64;93422.00;5014059;28;20058;-81
2021/07/01 09:52:11;;;;;;;23.25;8.85;;;;;;;39.70;24.53;93412.78;5003851;28;20029;-81
2021/07/01 09:54:39;;;;;;;24.80;9.70;;;;;;;39.23;24.44;93396.56;5002401;28;20038;-82
2021/07/01 09:57:17;;;;;;;25.38;9.02;;;;;;;39.18;25.93;93413.84;5003769;28;20045;-82
2021/07/01 10:00:07;;;;;;;28.63;9.43;;;;;;;39.25;26.21;93405.13;5016705;28;20046;-81
2021/07/01 10:02:33;;;;;;;25.95;9.65;;;;;;;39.27;25.26;93402.66;5006782;28;20056;-79
2021/07/01 10:04:58;;;;;;;30.33;10.52;;;;;;;39.52;27.05;93399.25;5003730;28;20071;-81
2021/07/01 10:07:25;;;;;;;24.85;8.18;;;;;;;39.57;25.61;93398.56;5002683;28;20387;-80
2021/07/01 10:09:54;;;;;;;24.38;9.48;;;;;;;39.66;25.82;93394.88;5004058;28;20633;-79
2021/07/01 10:12:28;;;;;;;29.17;9.13;;;;;;;39.61;24.90;93388.03;5000065;28;20076;-81
2021/07/01 10:15:03;;;;;;;26.58;8.90;;;;;;;39.65;24.74;93388.59;5002238;28;20050;-80
2021/07/01 10:17:30;;;;;;;28.88;9.38;;;;;;;39.23;24.97;93375.22;4997656;28;20034;-80
2021/07/01 10:20:06;;;;;;;25.33;9.45;;;;;;;39.29;25.89;93380.84;5001820;28;20149;-80
2021/07/01 10:22:40;;;;;;;25.17;8.35;;;;;;;39.37;25.67;93382.72;5020843;28;20030;-80
2021/07/01 10:25:07;;;;;;;22.63;8.57;;;;;;;39.24;24.71;93371.22;5000531;28;20045;-80
2021/07/01 10:27:41;;;;;;;26.25;9.25;;;;;;;38.94;25.01;93370.56;5005975;28;20109;-80
2021/07/01 10:30:18;;;;;;;24.00;10.15;;;;;;;39.04;26.06;93367.69;5002066;28;20038;-81
2021/07/01 10:32:45;;;;;;;22.92;10.18;;;;;;;38.45;26.20;93363.00;5001719;28;20125;-81
2021/07/01 10:35:34;;;;;;;20.77;9.85;;;;;;;38.35;27.25;93369.06;4998512;28;20057;-80
2021/07/01 10:38:00;;;;;;;26.77;11.15;;;;;;;37.73;28.00;93365.19;5004665;28;20030;-79
2021/07/01 10:40:25;;;;;;;31.70;11.02;;;;;;;37.75;27.09;93348.19;5003877;28;20040;-80
2021/07/01 10:42:55;;;;;;;21.13;11.32;;;;;;;37.58;28.38;93344.34;5001881;28;20053;-80
2021/07/01 10:45:20;;;;;;;25.65;9.90;;;;;;;37.42;28.90;93339.25;5009072;28;20100;-78
2021/07/01 10:47:46;;;;;;;22.92;10.90;;;;;;;36.88;29.80;93343.84;5003417;28;20592;-80
2021/07/01 10:50:21;;;;;;;24.88;10.93;;;;;;;36.48;29.76;93346.91;5004543;28;20038;-80
2021/07/01 10:52:48;;;;;;;33.88;11.15;;;;;;;36.48;30.96;93342.19;4996669;28;20662;-78
2021/07/01 10:55:17;;;;;;;27.52;12.27;;;;;;;36.45;30.71;93329.38;4999981;28;20049;-78
2021/07/01 10:57:48;;;;;;;33.08;10.90;;;;;;;36.47;30.49;93334.38;5000953;28;20018;-78
2021/07/01 11:00:13;;;;;;;26.95;11.43;;;;;;;36.21;29.42;93341.53;4997977;28;20026;-79
2021/07/01 11:02:49;;;;;;;30.60;11.43;;;;;;;36.06;30.74;93322.13;4998085;28;20489;-78
2021/07/01 11:05:15;;;;;;;29.63;11.18;;;;;;;35.98;30.63;93324.44;5004138;28;20474;-79
2021/07/01 11:07:46;;;;;;;28.33;11.93;;;;;;;35.70;30.82;93317.47;5003254;28;20045;-80
2021/07/01 11:10:30;;;;;;;31.77;10.75;;;;;;;35.47;31.50;93318.84;5000114;28;20037;-80
2021/07/01 11:12:56;;;;;;;;;;;;;;;35.36;32.88;93313.03;5001988;28;20056;-78
2021/07/01 11:15:21;;;;;;;18.88;10.80;;;;;;;35.50;32.62;93303.41;5004852;28;20500;-79
2021/07/01 11:17:47;;;;;;;34.80;12.07;;;;;;;35.57;31.77;93306.63;4996725;28;20487;-80
2021/07/01 11:20:22;;;;;;;29.77;11.05;;;;;;;35.52;31.38;93290.75;5000598;28;20037;-81
2021/07/01 11:22:57;;;;;;;27.52;11.63;;;;;;;35.51;32.17;93289.22;5013095;28;20100;-78